Ramona, OK (74061)

4:30 AM CDT on September 01, 2014 (GMT -0500)
KOKHOGSH1 | Change Station
CLOSE
Current Station
Personal Weather Station
Location: Hogshooter, OK
Elevation: 790 ft
Nearby Weather Stations

Elev 790 ft 36.69 °N, 95.83 °W | Updated 16 seconds ago

Overcast
Overcast
69.3 °F
Feels Like 69.3 °F
N
12.0
Wind Variable Wind from NE
Gusts 12.0 mph

Today
High -- | Low -- °F
--% Chance of Precip.
Yesterday
High -- | Low -- °F
Precip. -- in
6:54 AM 7:51 PM
Waxing Crescent, 39% visible
Pressure 29.91 in
Visibility 10.0 miles
Clouds Overcast 4400 ft
Dew Point 64 °F
Humidity 83%
Rainfall 0.00 in
Snow Depth Not available.
UV 0 out of 12
Pollen 9.60 out of 12
Air Quality Not available.
Flu Activity Not available.
SPECI KBVO 010919Z AUTO 04010G14KT 10SM VCTS -RA OVC044 20/17 A2991 RMK AO2 LTG DSNT N AND NW RAB12 P0000 T02000172

More Conditions Fewer Conditions

Pressure 29.91 in
Visibility 10.0 miles
Clouds Overcast 4400 ft
Dew Point 64 °F
Humidity 83%
Rainfall 0.00 in
Snow Depth Not available.
UV 0 out of 12
Pollen 9.60 out of 12
Air Quality Not available.
Flu Activity Not available.
SPECI KBVO 010919Z AUTO 04010G14KT 10SM VCTS -RA OVC044 20/17 A2991 RMK AO2 LTG DSNT N AND NW RAB12 P0000 T02000172

More Conditions Fewer Conditions

Nowcast | as of 3:06 am CDT on September 1, 2014

At 3 am...scattered showers and isolated thunderstorms were spreading south of the Oklahoma Kansas border...with widespread showers and thunderstorms ongoing across southeast Kansas. Through 5 am...scattered showers and thunderstorms will continue to develop across far northeast Oklahoma and primarily north of a line from Pawhuska to Vinita. Gusty north winds of 30 to 40 mph will also be common as large area of thunderstorm outflow winds push southward.

×

10-Day Weather Forecast

Almanac

Astronomy

Sep. 01, 2014 Rise Set
Actual Time 6:54 AM CDT 7:51 PM CDT
Civil Twilight 6:28 AM CDT 8:17 PM CDT
Nautical Twilight 5:57 AM CDT 8:49 PM CDT
Astronomical Twilight 5:24 AM CDT 9:21 PM CDT
Moon 1:30 PM CDT No Moon Set
Length of Visible Light 13h 49m
Length of Day
12h 56m
Tomorrow will be 2m 13s shorter.
Waxing Crescent, 39% of the Moon is Illuminated
Today
Waxing Crescent
Sep 2
First Quarter
Sep 8
Full
Sep 15
Last Quarter
Sep 24
New

Today's Extremes

State Highs State Lows

Community

WunderPhotos

Upload Photos

1,749,178 photos uploaded!

Nearby

Snow Depth

Station Depth Elevation
No new snow has been reported.

Earthquake Activity

City Distance Mag. Time & Date
Jones, Oklahoma 101 miles 3.1 1:49 PM CDT
2014-08-31
Guthrie, Oklahoma 98 miles 3.2 10:39 AM CDT
2014-08-29
Minimum magnitude displayed is 2.5.

Coastal Water Temperatures

Place Temperature
No Stations Reporting

Nearby Weather Stations